RJFR(METAR)
05/24 14:00
METAR RJFR 240500Z VRB03KT CAVOK 30/08 Q1012 RMK A2990=
戻る
トップページへ戻る
IMOC Co,.Ltd.